Time;durP1;ratioP1;P1;durP2;ratioP2;P2;SDS_P1;SDS_P2;PMS_P1;PMS_P2;Temp;Humidity;BMP_temperature;BMP_pressure;BME280_temperature;BME280_humidity;BME280_pressure;Samples;Min_cycle;Max_cycle;Signal;HPM_P1;HPM_P2
2022/08/26 00:02:14;;;;;;;11.60;6.90;;;21.40;99.90;;;;;;5021369;28;20169;-77
2022/08/26 00:04:40;;;;;;;6.87;6.17;;;21.40;99.90;;;;;;5020718;28;20174;-78
2022/08/26 00:07:05;;;;;;;7.50;6.50;;;21.30;99.90;;;;;;5002480;28;20248;-77
2022/08/26 00:09:31;;;;;;;8.63;7.93;;;21.30;99.90;;;;;;5004426;28;20199;-77
2022/08/26 00:11:57;;;;;;;8.50;6.50;;;21.30;99.90;;;;;;5021613;28;20172;-79
2022/08/26 00:14:24;;;;;;;9.70;8.17;;;21.30;99.90;;;;;;5005412;28;20842;-79
2022/08/26 00:16:50;;;;;;;11.30;6.97;;;21.30;99.90;;;;;;5022810;28;20581;-78
2022/08/26 00:19:18;;;;;;;13.37;6.93;;;21.20;99.90;;;;;;5022406;28;20469;-78
2022/08/26 00:21:44;;;;;;;10.00;7.60;;;21.20;99.90;;;;;;5021456;28;20191;-77
2022/08/26 00:24:10;;;;;;;6.63;6.03;;;21.20;99.90;;;;;;5022152;28;20438;-77
2022/08/26 00:26:36;;;;;;;12.97;7.30;;;21.20;99.90;;;;;;5004257;28;20417;-77
2022/08/26 00:29:02;;;;;;;13.00;7.20;;;21.20;99.90;;;;;;5021591;28;20210;-77
2022/08/26 00:31:27;;;;;;;11.60;7.93;;;21.20;99.90;;;;;;5023874;28;20170;-77
2022/08/26 00:33:54;;;;;;;9.50;7.40;;;21.20;99.90;;;;;;5026374;28;20292;-77
2022/08/26 00:36:20;;;;;;;11.73;9.00;;;21.20;99.90;;;;;;5027331;28;20172;-77
2022/08/26 00:38:46;;;;;;;8.50;7.60;;;21.20;99.90;;;;;;5011562;28;20424;-77
2022/08/26 00:41:12;;;;;;;8.77;7.23;;;21.10;99.90;;;;;;5030906;28;20171;-77
2022/08/26 00:43:38;;;;;;;8.03;6.57;;;21.10;99.90;;;;;;5025253;28;20414;-77
2022/08/26 00:46:12;;;;;;;8.40;7.43;;;21.00;99.90;;;;;;5021956;28;20180;-78
2022/08/26 00:48:41;;;;;;;11.83;7.93;;;21.00;99.90;;;;;;5020265;28;20193;-78
2022/08/26 00:51:14;;;;;;;10.40;7.17;;;21.00;99.90;;;;;;5020870;28;20412;-77
2022/08/26 00:54:03;;;;;;;9.90;7.83;;;21.00;99.90;;;;;;5021491;28;20448;-77
2022/08/26 00:56:35;;;;;;;7.57;6.87;;;21.00;99.90;;;;;;5020693;28;20451;-77
2022/08/26 00:59:05;;;;;;;9.50;7.40;;;21.00;99.90;;;;;;5020685;28;20449;-79
2022/08/26 01:01:31;;;;;;;9.63;7.70;;;21.00;99.90;;;;;;5022248;28;20445;-77
2022/08/26 01:03:57;;;;;;;9.13;7.57;;;20.90;99.90;;;;;;5020879;28;20420;-78
2022/08/26 01:06:23;;;;;;;11.17;7.60;;;20.90;99.90;;;;;;5020115;28;20467;-78
2022/08/26 01:08:50;;;;;;;10.50;8.07;;;20.90;99.90;;;;;;5020573;28;20436;-77
2022/08/26 01:11:16;;;;;;;12.70;8.23;;;20.90;99.90;;;;;;5019954;28;20433;-78
2022/08/26 01:13:42;;;;;;;14.30;6.63;;;20.90;99.90;;;;;;5018903;28;20456;-78
2022/08/26 01:16:11;;;;;;;13.10;7.77;;;20.90;99.90;;;;;;5020569;28;20509;-77
2022/08/26 01:18:39;;;;;;;14.73;7.83;;;20.90;99.90;;;;;;5021038;28;20267;-77
2022/08/26 01:21:27;;;;;;;7.53;6.83;;;20.90;99.90;;;;;;5021580;28;20744;-77
2022/08/26 01:23:54;;;;;;;10.13;8.43;;;20.90;99.90;;;;;;5004289;28;20426;-78
2022/08/26 01:26:29;;;;;;;10.53;7.77;;;20.90;99.90;;;;;;5020600;28;20430;-79
2022/08/26 01:28:58;;;;;;;11.10;8.30;;;20.90;99.90;;;;;;5004921;28;20451;-77
2022/08/26 01:31:28;;;;;;;13.43;7.80;;;20.90;99.90;;;;;;5027755;28;20480;-78
2022/08/26 01:34:02;;;;;;;14.40;7.73;;;20.90;99.90;;;;;;5028224;28;20454;-78
2022/08/26 01:36:29;;;;;;;9.20;7.50;;;20.90;99.90;;;;;;5025233;28;20406;-77
2022/08/26 01:38:55;;;;;;;9.47;8.40;;;20.90;99.90;;;;;;5027258;28;20443;-77
2022/08/26 01:41:21;;;;;;;10.77;7.67;;;21.00;99.90;;;;;;5025408;28;20410;-77
2022/08/26 01:43:52;;;;;;;8.90;7.57;;;21.00;99.90;;;;;;5025087;28;20497;-77
2022/08/26 01:46:21;;;;;;;9.20;8.30;;;20.90;99.90;;;;;;5026706;28;20409;-77
2022/08/26 01:48:48;;;;;;;9.83;8.90;;;20.90;99.90;;;;;;5026300;28;20423;-77
2022/08/26 01:51:15;;;;;;;10.90;8.40;;;20.90;99.90;;;;;;5024709;28;20487;-77
2022/08/26 01:53:41;;;;;;;9.63;8.57;;;20.80;99.90;;;;;;5023846;28;20451;-78
2022/08/26 01:56:09;;;;;;;13.43;9.07;;;20.90;99.90;;;;;;5019907;28;20557;-79
2022/08/26 01:58:44;;;;;;;9.27;7.10;;;20.80;99.90;;;;;;5003165;28;20455;-77
2022/08/26 02:01:10;;;;;;;10.93;8.00;;;20.80;99.90;;;;;;5020272;28;20466;-77
2022/08/26 02:03:45;;;;;;;14.83;8.10;;;20.80;99.90;;;;;;5001867;28;20983;-77
2022/08/26 02:06:11;;;;;;;15.80;9.43;;;20.80;99.90;;;;;;5002568;28;20434;-77
2022/08/26 02:08:46;;;;;;;9.53;8.20;;;20.80;99.90;;;;;;5020505;28;20463;-77
2022/08/26 02:11:12;;;;;;;13.03;8.30;;;20.70;99.90;;;;;;5022505;28;20424;-77
2022/08/26 02:13:43;;;;;;;8.20;7.30;;;20.70;99.90;;;;;;5019526;28;20452;-78
2022/08/26 02:16:10;;;;;;;12.03;9.10;;;20.70;99.90;;;;;;5000830;28;20452;-78
2022/08/26 02:18:39;;;;;;;14.07;8.50;;;20.70;99.90;;;;;;5018498;28;20518;-78
2022/08/26 02:21:08;;;;;;;12.53;9.70;;;20.70;99.90;;;;;;5019247;28;20810;-77
2022/08/26 02:23:34;;;;;;;12.40;10.00;;;20.60;99.90;;;;;;5020112;28;20437;-77
2022/08/26 02:26:11;;;;;;;12.90;8.83;;;20.60;99.90;;;;;;5019481;28;20408;-77
2022/08/26 02:28:45;;;;;;;11.90;9.23;;;20.60;99.90;;;;;;5020146;28;20442;-77
2022/08/26 02:31:11;;;;;;;11.33;10.20;;;20.60;99.90;;;;;;5022299;28;20440;-77
2022/08/26 02:33:37;;;;;;;17.47;8.67;;;20.60;99.90;;;;;;5025162;28;20464;-78
2022/08/26 02:36:03;;;;;;;13.67;9.30;;;20.60;99.90;;;;;;5027154;28;20160;-77
2022/08/26 02:38:29;;;;;;;13.23;9.67;;;20.60;99.90;;;;;;5027926;28;20193;-77
2022/08/26 02:40:55;;;;;;;13.90;9.27;;;20.50;99.90;;;;;;5029725;28;20450;-77
2022/08/26 02:43:20;;;;;;;11.50;10.13;;;20.50;99.90;;;;;;5031172;28;20173;-77
2022/08/26 02:45:46;;;;;;;16.30;9.30;;;20.50;99.90;;;;;;5015634;28;20427;-77
2022/08/26 02:48:15;;;;;;;10.90;9.80;;;20.50;99.90;;;;;;5033743;28;20175;-77
2022/08/26 02:50:40;;;;;;;13.60;9.27;;;20.50;99.90;;;;;;5036016;28;20171;-77
2022/08/26 02:53:07;;;;;;;10.00;8.20;;;20.50;99.90;;;;;;5033226;28;20453;-77
2022/08/26 02:55:33;;;;;;;13.87;8.50;;;20.50;99.90;;;;;;5013223;28;20419;-78
2022/08/26 02:58:00;;;;;;;14.60;8.70;;;20.50;99.90;;;;;;5030925;28;20818;-76
2022/08/26 03:00:26;;;;;;;11.77;9.93;;;20.50;99.90;;;;;;5025935;28;20429;-77
2022/08/26 03:02:52;;;;;;;13.23;9.20;;;20.40;99.90;;;;;;5024032;28;20401;-78
2022/08/26 03:05:20;;;;;;;14.17;10.17;;;20.40;99.90;;;;;;5023611;28;20406;-77
2022/08/26 03:07:46;;;;;;;15.00;10.37;;;20.40;99.90;;;;;;5022869;28;20412;-78
2022/08/26 03:10:12;;;;;;;11.17;9.30;;;20.40;99.90;;;;;;5030434;28;20420;-77
2022/08/26 03:12:38;;;;;;;11.83;9.40;;;20.40;99.90;;;;;;5032877;28;20933;-77
2022/08/26 03:15:06;;;;;;;12.57;10.00;;;20.40;99.90;;;;;;5029960;28;20178;-77
2022/08/26 03:17:31;;;;;;;14.07;10.40;;;20.40;99.90;;;;;;5031505;28;20490;-77
2022/08/26 03:19:57;;;;;;;13.80;9.50;;;20.40;99.90;;;;;;5035863;28;20428;-77
2022/08/26 03:22:23;;;;;;;13.60;9.63;;;20.40;99.90;;;;;;5033448;28;20197;-77
2022/08/26 03:24:49;;;;;;;13.93;10.10;;;20.40;99.90;;;;;;5030332;28;20218;-77
2022/08/26 03:27:14;;;;;;;13.17;10.90;;;20.40;99.90;;;;;;5026568;28;20411;-77
2022/08/26 03:32:24;;;;;;;13.43;9.47;;;20.40;99.90;;;;;;5032697;28;20186;-77
2022/08/26 03:34:50;;;;;;;14.97;10.60;;;20.40;99.90;;;;;;5015220;28;20457;-76
2022/08/26 03:37:15;;;;;;;13.83;9.80;;;20.40;99.90;;;;;;5032705;28;20223;-77
2022/08/26 03:39:41;;;;;;;14.00;10.70;;;20.40;99.90;;;;;;5015309;28;20201;-77
2022/08/26 03:42:06;;;;;;;12.57;10.97;;;20.40;99.90;;;;;;5031120;28;20192;-77
2022/08/26 03:44:32;;;;;;;13.30;11.30;;;20.40;99.90;;;;;;5032286;28;20214;-77
2022/08/26 03:46:57;;;;;;;13.03;10.13;;;20.40;99.90;;;;;;5032810;28;20169;-77
2022/08/26 03:49:23;;;;;;;14.00;10.00;;;20.40;99.90;;;;;;5031867;28;20197;-77
2022/08/26 03:51:49;;;;;;;25.77;11.27;;;20.40;99.90;;;;;;5032519;28;20169;-77
2022/08/26 03:54:14;;;;;;;21.07;11.60;;;20.40;99.90;;;;;;5032426;28;20211;-77
2022/08/26 03:56:40;;;;;;;14.10;11.20;;;20.40;99.90;;;;;;5015527;28;20172;-78
2022/08/26 03:59:06;;;;;;;12.30;10.97;;;20.40;99.90;;;;;;5028683;28;20240;-77
2022/08/26 04:01:31;;;;;;;13.63;10.07;;;20.40;99.90;;;;;;5006691;28;20263;-77
2022/08/26 04:03:57;;;;;;;13.87;10.70;;;20.40;99.90;;;;;;5006794;28;20205;-77
2022/08/26 04:06:29;;;;;;;17.53;12.50;;;20.30;99.90;;;;;;5027450;28;20181;-77
2022/08/26 04:08:58;;;;;;;14.80;10.73;;;20.30;99.90;;;;;;5029249;28;20225;-77
2022/08/26 04:11:30;;;;;;;11.83;10.50;;;20.30;99.90;;;;;;5030449;28;20942;-77
2022/08/26 04:13:59;;;;;;;16.40;11.97;;;20.30;99.90;;;;;;5025323;28;20489;-78
2022/08/26 04:16:27;;;;;;;16.17;10.67;;;20.30;99.90;;;;;;5020206;28;20647;-78
2022/08/26 04:18:53;;;;;;;12.67;9.70;;;20.30;99.90;;;;;;5021230;28;20451;-78
2022/08/26 04:21:19;;;;;;;11.10;10.03;;;20.30;99.90;;;;;;5021437;28;20765;-78
2022/08/26 04:23:44;;;;;;;12.83;10.30;;;20.30;99.90;;;;;;5021979;28;20201;-78
2022/08/26 04:26:10;;;;;;;16.30;8.90;;;20.30;99.90;;;;;;5021700;28;20501;-78
2022/08/26 04:28:36;;;;;;;14.13;10.10;;;20.30;99.90;;;;;;5021439;28;20194;-77
2022/08/26 04:31:01;;;;;;;13.13;9.77;;;20.30;99.90;;;;;;5020858;28;20218;-78
2022/08/26 04:33:27;;;;;;;9.00;8.13;;;20.30;99.90;;;;;;5020793;28;20286;-78
2022/08/26 04:36:04;;;;;;;17.73;10.60;;;20.30;99.90;;;;;;5021221;28;20176;-78
2022/08/26 04:38:30;;;;;;;12.33;10.50;;;20.30;99.90;;;;;;5004182;28;20196;-78
2022/08/26 04:40:56;;;;;;;14.80;10.23;;;20.40;99.90;;;;;;5003308;28;20477;-78
2022/08/26 04:43:23;;;;;;;14.30;9.63;;;20.40;99.90;;;;;;5021238;28;20495;-78
2022/08/26 04:45:48;;;;;;;12.10;10.57;;;20.40;99.90;;;;;;5021886;28;20423;-78
2022/08/26 04:48:14;;;;;;;10.53;9.20;;;20.40;99.90;;;;;;5021422;28;20419;-78
2022/08/26 04:50:40;;;;;;;15.87;8.60;;;20.50;99.90;;;;;;5024856;28;20534;-78
2022/08/26 04:53:05;;;;;;;22.60;11.37;;;20.50;99.90;;;;;;5021722;28;20206;-79
2022/08/26 04:55:31;;;;;;;15.20;11.20;;;20.50;99.90;;;;;;5022199;28;20226;-79
2022/08/26 04:57:56;;;;;;;11.10;10.07;;;20.50;99.90;;;;;;5022389;28;20201;-77
2022/08/26 05:00:22;;;;;;;11.10;9.07;;;20.50;99.90;;;;;;5022118;28;20217;-76
2022/08/26 05:02:47;;;;;;;11.43;10.03;;;20.60;99.90;;;;;;5022802;28;20256;-77
2022/08/26 05:05:13;;;;;;;13.00;9.47;;;20.60;99.90;;;;;;5023458;28;20689;-77
2022/08/26 05:07:40;;;;;;;10.00;8.97;;;20.70;99.90;;;;;;5027977;28;20167;-77
2022/08/26 05:10:06;;;;;;;13.63;9.80;;;20.80;99.90;;;;;;5023762;28;20600;-77
2022/08/26 05:12:32;;;;;;;11.90;9.70;;;20.90;99.90;;;;;;5021112;28;20403;-77
2022/08/26 05:14:59;;;;;;;12.83;9.63;;;20.90;99.90;;;;;;5021108;28;20961;-77
2022/08/26 05:17:26;;;;;;;11.30;10.20;;;20.90;99.90;;;;;;5020593;28;20412;-77
2022/08/26 05:19:52;;;;;;;17.47;10.67;;;21.00;99.90;;;;;;5060992;22;20554;-72
2022/08/26 05:22:18;;;;;;;10.83;9.70;;;21.10;99.90;;;;;;5051500;28;20416;-72
2022/08/26 05:24:45;;;;;;;14.70;8.80;;;21.20;99.90;;;;;;5051439;28;20407;-72
2022/08/26 05:27:12;;;;;;;13.40;9.17;;;21.30;99.90;;;;;;5051423;28;20925;-72
2022/08/26 05:29:38;;;;;;;11.10;9.40;;;21.30;99.90;;;;;;5051600;28;20492;-71
2022/08/26 05:32:04;;;;;;;8.60;7.40;;;21.40;99.90;;;;;;5051264;28;20409;-71
2022/08/26 05:34:29;;;;;;;9.80;8.80;;;21.40;99.90;;;;;;5051091;28;20478;-71
2022/08/26 05:36:55;;;;;;;14.73;9.50;;;21.50;99.90;;;;;;5051857;28;20218;-71
2022/08/26 05:39:22;;;;;;;12.50;9.87;;;21.60;99.90;;;;;;5051214;28;20247;-72
2022/08/26 05:41:48;;;;;;;14.60;8.70;;;21.70;99.90;;;;;;5051094;28;20241;-72
2022/08/26 05:44:17;;;;;;;11.63;8.97;;;21.90;99.90;;;;;;5051062;28;20490;-71
2022/08/26 05:46:44;;;;;;;9.93;8.07;;;22.10;99.90;;;;;;5050964;28;20609;-72
2022/08/26 05:49:11;;;;;;;12.63;8.27;;;22.30;99.90;;;;;;5051312;28;20436;-72
2022/08/26 05:51:37;;;;;;;8.50;7.53;;;22.60;99.90;;;;;;5033169;28;20416;-72
2022/08/26 05:54:05;;;;;;;15.63;8.43;;;23.10;99.90;;;;;;5051708;28;20476;-73
2022/08/26 05:56:31;;;;;;;15.53;8.63;;;23.50;99.90;;;;;;5051418;28;20196;-72
2022/08/26 05:58:57;;;;;;;12.57;7.70;;;24.00;99.90;;;;;;5051131;28;20966;-72
2022/08/26 06:01:26;;;;;;;10.13;6.27;;;24.40;99.90;;;;;;5051029;28;20335;-72
2022/08/26 06:03:56;;;;;;;8.57;6.73;;;24.40;99.90;;;;;;5051275;28;20197;-72
2022/08/26 06:06:26;;;;;;;12.47;7.83;;;24.40;99.90;;;;;;5050121;28;20397;-72
2022/08/26 06:08:52;;;;;;;13.83;8.00;;;24.70;99.90;;;;;;5050677;28;20945;-72
2022/08/26 06:11:24;;;;;;;7.63;6.47;;;24.90;99.90;;;;;;5051080;28;20462;-72
2022/08/26 06:13:50;;;;;;;9.10;6.37;;;25.20;99.90;;;;;;5051139;28;20459;-73
2022/08/26 06:16:19;;;;;;;10.07;6.80;;;25.40;99.90;;;;;;5050769;28;20416;-72
2022/08/26 06:18:46;;;;;;;8.60;7.17;;;25.80;99.90;;;;;;5050746;28;20463;-72
2022/08/26 06:21:22;;;;;;;6.93;6.23;;;26.10;99.90;;;;;;5050749;28;20401;-72
2022/08/26 06:26:36;;;;;;;7.50;6.10;;;26.50;99.90;;;;;;5050544;28;20408;-72
2022/08/26 06:29:03;;;;;;;8.73;6.23;;;26.60;99.90;;;;;;5050635;28;20828;-72
2022/08/26 06:31:30;;;;;;;10.23;6.67;;;26.60;99.90;;;;;;5059069;28;20409;-72
2022/08/26 06:33:57;;;;;;;10.77;6.30;;;26.90;99.90;;;;;;5059781;28;20448;-72
2022/08/26 06:36:25;;;;;;;9.77;6.03;;;27.10;99.90;;;;;;5050297;28;20463;-73
2022/08/26 06:38:53;;;;;;;10.50;6.00;;;27.20;99.90;;;;;;5050605;28;20490;-73
2022/08/26 06:41:22;;;;;;;6.60;6.00;;;27.40;99.90;;;;;;5050344;28;20455;-72
2022/08/26 06:43:49;;;;;;;9.47;5.90;;;27.80;99.90;;;;;;5050603;28;20413;-72
2022/08/26 06:46:17;;;;;;;11.73;6.80;;;27.40;99.90;;;;;;5049987;28;20781;-72
2022/08/26 06:48:43;;;;;;;9.87;6.67;;;27.70;99.90;;;;;;5050386;28;20438;-72
2022/08/26 06:51:10;;;;;;;9.47;6.60;;;28.60;99.90;;;;;;5050679;28;20431;-72
2022/08/26 06:53:37;;;;;;;13.17;6.00;;;28.90;99.90;;;;;;5050140;28;20245;-72
2022/08/26 06:56:06;;;;;;;9.83;5.63;;;29.20;99.90;;;;;;5049884;28;20401;-72
2022/08/26 06:58:33;;;;;;;10.17;6.07;;;29.40;99.90;;;;;;5050343;28;20404;-72
2022/08/26 07:00:59;;;;;;;11.93;5.60;;;30.00;99.90;;;;;;5050009;28;20409;-72
2022/08/26 07:03:25;;;;;;;8.97;7.23;;;29.90;99.90;;;;;;5050625;28;20448;-72
2022/08/26 07:05:51;;;;;;;6.60;6.00;;;30.20;99.90;;;;;;5049818;28;20923;-72
2022/08/26 07:08:16;;;;;;;7.00;5.30;;;30.60;99.90;;;;;;5032330;28;20186;-72
2022/08/26 07:10:42;;;;;;;9.13;5.73;;;29.70;99.90;;;;;;5050241;28;20933;-72
2022/08/26 07:13:09;;;;;;;8.70;7.43;;;30.50;99.90;;;;;;5050367;28;20187;-72
2022/08/26 07:15:38;;;;;;;7.13;5.50;;;29.70;99.90;;;;;;5050540;28;20659;-72
2022/08/26 07:18:05;;;;;;;9.90;6.57;;;30.40;99.90;;;;;;5053902;28;20441;-72
2022/08/26 07:20:31;;;;;;;12.23;6.87;;;30.00;99.90;;;;;;5053610;28;20445;-72
2022/08/26 07:22:57;;;;;;;8.70;6.13;;;30.80;99.90;;;;;;5053959;28;20407;-73
2022/08/26 07:25:23;;;;;;;10.43;6.23;;;31.30;99.90;;;;;;5053670;28;20175;-72
2022/08/26 07:27:49;;;;;;;10.77;5.77;;;30.80;99.90;;;;;;5053830;28;20788;-72
2022/08/26 07:30:14;;;;;;;10.07;7.40;;;30.60;99.90;;;;;;5053516;28;20421;-72
2022/08/26 07:32:40;;;;;;;10.50;6.00;;;31.40;99.90;;;;;;5053846;28;20559;-74
2022/08/26 07:35:06;;;;;;;8.30;5.77;;;31.70;99.90;;;;;;5053213;28;20530;-71
2022/08/26 07:37:32;;;;;;;8.77;4.93;;;32.00;99.90;;;;;;5053529;28;20167;-73
2022/08/26 07:39:57;;;;;;;11.20;6.10;;;30.80;99.90;;;;;;5053372;28;20218;-72
2022/08/26 07:42:23;;;;;;;7.40;5.83;;;30.20;99.90;;;;;;5053564;28;20167;-72
2022/08/26 07:44:48;;;;;;;14.00;7.27;;;31.70;99.90;;;;;;5052951;28;20669;-73
2022/08/26 07:47:15;;;;;;;8.70;5.70;;;32.50;99.90;;;;;;5053126;28;20206;-73
2022/08/26 07:49:40;;;;;;;10.20;6.10;;;32.40;99.90;;;;;;5053237;28;20613;-73
2022/08/26 07:52:08;;;;;;;8.63;5.70;;;31.00;99.90;;;;;;5053036;28;20456;-72
2022/08/26 07:54:33;;;;;;;7.50;6.53;;;30.50;99.90;;;;;;5053133;28;20190;-72
2022/08/26 07:56:59;;;;;;;8.97;5.17;;;31.40;99.90;;;;;;5053344;28;20418;-72
2022/08/26 07:59:24;;;;;;;9.80;6.30;;;32.30;99.90;;;;;;5053224;28;20222;-72
2022/08/26 08:01:50;;;;;;;6.63;5.10;;;32.30;99.90;;;;;;5053632;28;20714;-72
2022/08/26 08:04:18;;;;;;;8.07;6.20;;;32.10;99.90;;;;;;5035508;28;20189;-72
2022/08/26 08:06:45;;;;;;;10.87;5.03;;;32.60;99.90;;;;;;5052702;28;20305;-74
2022/08/26 08:09:13;;;;;;;8.40;5.57;;;31.30;99.90;;;;;;5052785;28;20523;-72
2022/08/26 08:11:40;;;;;;;8.80;4.70;;;32.00;99.90;;;;;;5052845;28;20412;-73
2022/08/26 08:14:06;;;;;;;8.00;4.30;;;32.80;99.90;;;;;;5018093;28;20459;-73
2022/08/26 08:16:31;;;;;;;7.27;6.33;;;32.80;99.90;;;;;;5052493;28;20893;-73
2022/08/26 08:18:57;;;;;;;12.20;4.90;;;32.50;99.90;;;;;;5052690;28;20201;-73
2022/08/26 08:21:24;;;;;;;5.50;4.93;;;32.90;99.90;;;;;;5052525;28;20171;-72
2022/08/26 08:23:55;;;;;;;11.43;5.07;;;32.90;99.90;;;;;;5052855;28;20652;-73
2022/08/26 08:26:23;;;;;;;9.80;4.07;;;33.40;99.90;;;;;;5052219;28;20397;-73
2022/08/26 08:28:48;;;;;;;8.57;4.90;;;32.80;99.90;;;;;;5052090;28;20429;-73
2022/08/26 08:31:19;;;;;;;5.70;4.10;;;33.10;99.90;;;;;;5052688;28;20974;-73
2022/08/26 08:33:45;;;;;;;6.77;4.17;;;33.10;99.90;;;;;;5052303;28;20186;-73
2022/08/26 08:36:13;;;;;;;11.07;4.90;;;32.80;99.90;;;;;;5051935;28;20895;-73
2022/08/26 08:38:39;;;;;;;10.77;4.80;;;32.40;99.90;;;;;;5052290;28;20402;-73
2022/08/26 08:41:05;;;;;;;8.43;4.13;;;32.20;99.90;;;;;;5034148;28;20463;-73
2022/08/26 08:43:39;;;;;;;8.03;4.90;;;31.60;99.90;;;;;;5052293;28;20195;-73
2022/08/26 08:46:12;;;;;;;8.97;4.50;;;31.00;99.90;;;;;;5052211;28;20763;-72
2022/08/26 08:48:42;;;;;;;4.93;3.93;;;30.90;99.90;;;;;;5052389;28;20401;-72
2022/08/26 08:51:40;;;;;;;7.30;4.50;;;30.60;99.90;;;;;;5051889;28;20753;-71
2022/08/26 08:54:07;;;;;;;5.30;4.80;;;30.30;99.90;;;;;;5052340;28;20487;-72
2022/08/26 08:56:41;;;;;;;7.37;4.27;;;30.40;99.90;;;;;;5051892;28;20915;-72
2022/08/26 08:59:13;;;;;;;7.00;4.63;;;29.90;99.90;;;;;;5052371;28;20523;-72
2022/08/26 09:01:55;;;;;;;8.87;4.73;;;29.90;99.90;;;;;;5052125;28;20483;-72
2022/08/26 09:04:50;;;;;;;16.07;7.07;;;30.10;99.90;;;;;;5052274;28;20412;-72
2022/08/26 09:07:42;;;;;;;7.30;5.07;;;30.00;99.90;;;;;;5052195;28;20412;-73
2022/08/26 09:10:29;;;;;;;12.43;5.50;;;30.10;99.90;;;;;;5038639;28;20953;-71
2022/08/26 09:12:55;;;;;;;12.63;5.33;;;30.60;99.90;;;;;;5052045;28;20397;-72
2022/08/26 09:15:54;;;;;;;10.27;5.13;;;31.30;99.90;;;;;;5051372;28;20401;-72
2022/08/26 09:19:03;;;;;;;11.53;4.83;;;31.60;99.90;;;;;;5033798;28;20434;-71
2022/08/26 09:21:30;;;;;;;8.73;4.03;;;31.80;99.90;;;;;;4995369;28;20819;-72
2022/08/26 09:23:55;;;;;;;6.50;4.90;;;32.50;99.90;;;;;;5051470;28;20417;-72
2022/08/26 09:26:24;;;;;;;10.93;4.90;;;32.20;99.90;;;;;;5050932;28;20492;-72
2022/08/26 09:28:55;;;;;;;8.13;3.90;;;32.60;99.90;;;;;;5051396;28;20209;-72
2022/08/26 09:31:22;;;;;;;8.80;4.70;;;32.40;99.90;;;;;;5051497;28;20717;-72
2022/08/26 09:33:50;;;;;;;12.70;4.93;;;31.80;99.90;;;;;;5051174;28;20447;-72
2022/08/26 09:36:32;;;;;;;7.30;4.70;;;31.20;99.90;;;;;;5051102;28;20397;-73
2022/08/26 09:38:58;;;;;;;9.90;5.03;;;31.10;99.90;;;;;;5051186;28;20460;-73
2022/08/26 09:41:30;;;;;;;5.43;3.80;;;31.50;99.90;;;;;;5050865;28;20492;-73
2022/08/26 09:44:17;;;;;;;8.33;4.40;;;31.20;99.90;;;;;;5051335;28;20173;-73
2022/08/26 09:46:55;;;;;;;17.33;5.87;;;31.20;99.90;;;;;;5051242;28;20484;-73
2022/08/26 09:49:23;;;;;;;7.27;4.60;;;31.00;99.90;;;;;;5051059;28;20453;-73
2022/08/26 09:52:03;;;;;;;7.83;5.10;;;30.90;99.90;;;;;;5051018;28;20432;-73
2022/08/26 09:54:29;;;;;;;7.77;3.60;;;30.90;99.90;;;;;;5050978;28;20452;-73
2022/08/26 09:57:11;;;;;;;8.20;4.90;;;30.40;99.90;;;;;;5051263;28;20500;-72
2022/08/26 09:59:36;;;;;;;17.23;5.37;;;30.40;99.90;;;;;;5051197;28;20266;-72
2022/08/26 10:02:24;;;;;;;10.20;4.63;;;30.50;99.90;;;;;;5051336;28;20418;-72
2022/08/26 10:04:52;;;;;;;8.90;4.67;;;30.50;99.90;;;;;;5050637;28;20174;-72
2022/08/26 10:07:39;;;;;;;10.87;3.73;;;30.40;99.90;;;;;;5051185;28;20440;-72
2022/08/26 10:10:13;;;;;;;7.70;4.90;;;30.50;99.90;;;;;;5051046;28;20496;-72
2022/08/26 10:12:48;;;;;;;17.83;5.50;;;30.30;99.90;;;;;;5051464;28;21033;-72
2022/08/26 10:15:14;;;;;;;14.33;4.70;;;30.40;99.90;;;;;;5050791;28;20930;-73
2022/08/26 10:17:52;;;;;;;8.83;3.37;;;30.50;99.90;;;;;;5051167;28;20476;-72
2022/08/26 10:20:25;;;;;;;17.10;6.10;;;30.50;99.90;;;;;;5050271;28;20483;-72
2022/08/26 10:23:05;;;;;;;10.20;4.83;;;30.10;99.90;;;;;;5050316;28;20398;-72
2022/08/26 10:25:36;;;;;;;9.93;5.40;;;30.10;99.90;;;;;;5050043;28;20497;-72
2022/08/26 10:28:08;;;;;;;11.63;5.80;;;30.10;99.90;;;;;;5050379;28;20481;-72
2022/08/26 10:30:41;;;;;;;7.70;4.70;;;30.20;99.90;;;;;;5050481;28;20747;-72
2022/08/26 10:33:11;;;;;;;11.53;5.17;;;30.30;99.90;;;;;;5050612;28;20472;-72
2022/08/26 10:35:47;;;;;;;12.40;4.30;;;30.40;99.90;;;;;;5050073;28;20748;-72
2022/08/26 10:38:17;;;;;;;12.43;4.40;;;30.60;99.90;;;;;;5050370;28;20915;-72
2022/08/26 10:40:57;;;;;;;8.40;4.20;;;30.70;99.90;;;;;;5050281;28;20444;-72
2022/08/26 10:43:25;;;;;;;10.40;6.60;;;30.50;99.90;;;;;;5050234;28;20907;-72
2022/08/26 10:45:57;;;;;;;8.27;4.80;;;30.70;99.90;;;;;;5049640;28;20466;-72
2022/08/26 10:48:32;;;;;;;9.80;4.57;;;30.80;99.90;;;;;;5049891;28;20401;-72
2022/08/26 10:51:00;;;;;;;7.90;6.03;;;30.80;99.90;;;;;;5050959;28;20921;-72
2022/08/26 10:53:55;;;;;;;16.33;6.50;;;30.90;99.90;;;;;;5054038;28;20911;-72
2022/08/26 10:56:38;;;;;;;16.50;5.40;;;30.70;99.90;;;;;;5028126;28;20998;-72
2022/08/26 10:59:27;;;;;;;7.50;4.77;;;30.40;99.90;;;;;;5053901;28;20421;-72
2022/08/26 11:01:56;;;;;;;11.67;5.20;;;30.50;99.90;;;;;;5054120;28;20401;-72
2022/08/26 11:04:44;;;;;;;9.13;5.10;;;30.20;99.90;;;;;;5053844;28;20470;-72
2022/08/26 11:07:35;;;;;;;9.87;4.80;;;30.40;99.90;;;;;;5054000;28;20492;-73
2022/08/26 11:10:17;;;;;;;10.37;5.53;;;30.80;99.90;;;;;;5054100;28;20779;-72
2022/08/26 11:12:46;;;;;;;5.30;4.53;;;30.80;99.90;;;;;;5054262;28;20401;-72
2022/08/26 11:15:35;;;;;;;8.43;5.00;;;30.60;99.90;;;;;;5053698;28;20457;-72
2022/08/26 11:18:07;;;;;;;8.83;6.10;;;30.30;99.90;;;;;;5035729;28;20480;-72
2022/08/26 11:20:43;;;;;;;8.00;5.13;;;30.00;99.90;;;;;;5064215;22;20539;-77
2022/08/26 11:23:12;;;;;;;13.47;5.73;;;29.60;99.90;;;;;;5017980;28;20515;-77
2022/08/26 11:25:56;;;;;;;7.17;4.60;;;29.50;99.90;;;;;;5035368;28;20394;-77
2022/08/26 11:28:48;;;;;;;10.17;5.50;;;29.50;99.90;;;;;;5035331;28;20532;-75
2022/08/26 11:31:23;;;;;;;9.47;5.13;;;29.50;99.90;;;;;;5035411;28;20471;-76
2022/08/26 11:33:52;;;;;;;7.50;5.73;;;29.40;99.90;;;;;;5034980;28;20446;-77
2022/08/26 11:36:32;;;;;;;11.47;7.40;;;29.40;99.90;;;;;;5035254;28;20770;-77
2022/08/26 11:38:59;;;;;;;14.17;5.30;;;29.30;99.90;;;;;;5035405;28;20401;-77
2022/08/26 11:41:28;;;;;;;12.90;6.17;;;29.30;99.90;;;;;;5035474;28;20863;-77
2022/08/26 11:43:55;;;;;;;7.87;5.53;;;29.20;99.90;;;;;;5035467;28;20489;-77
2022/08/26 11:46:27;;;;;;;12.43;8.40;;;29.20;99.90;;;;;;5035247;28;20456;-77
2022/08/26 11:49:04;;;;;;;9.13;5.60;;;29.30;99.90;;;;;;5035470;28;20410;-76
2022/08/26 11:51:30;;;;;;;8.77;4.93;;;29.30;99.90;;;;;;5035285;28;20402;-76
2022/08/26 11:54:13;;;;;;;7.23;5.50;;;29.40;99.90;;;;;;5017248;28;20450;-76
2022/08/26 11:56:40;;;;;;;10.03;4.30;;;29.10;99.90;;;;;;5035102;28;20437;-76
2022/08/26 11:59:14;;;;;;;7.03;3.70;;;28.60;99.90;;;;;;5034652;28;20417;-76
2022/08/26 12:01:43;;;;;;;2.67;2.10;;;27.90;99.90;;;;;;5036919;28;20387;-76
2022/08/26 12:04:12;;;;;;;4.50;2.37;;;27.10;99.90;;;;;;5038667;28;20428;-76
2022/08/26 12:06:45;;;;;;;4.30;3.03;;;26.20;99.90;;;;;;5037570;28;20412;-77
2022/08/26 12:09:19;;;;;;;2.47;2.07;;;25.90;99.90;;;;;;5040153;28;20822;-76
2022/08/26 12:11:45;;;;;;;4.30;2.90;;;25.50;99.90;;;;;;5044346;28;20463;-76
2022/08/26 12:14:23;;;;;;;4.07;2.87;;;25.20;99.90;;;;;;5037654;28;20455;-78
2022/08/26 12:16:49;;;;;;;8.00;3.30;;;24.60;99.90;;;;;;5035095;28;20199;-77
2022/08/26 12:19:27;;;;;;;4.67;2.73;;;24.50;99.90;;;;;;5034378;28;20839;-77
2022/08/26 12:22:01;;;;;;;4.83;3.03;;;24.20;99.90;;;;;;5034088;28;20414;-77
2022/08/26 12:24:27;;;;;;;6.17;3.57;;;24.10;99.90;;;;;;5034388;28;20411;-76
2022/08/26 12:27:20;;;;;;;5.73;3.50;;;23.90;99.90;;;;;;5034174;28;20452;-77
2022/08/26 12:30:09;;;;;;;3.53;2.50;;;23.70;99.90;;;;;;5034262;28;20688;-76
2022/08/26 12:32:38;;;;;;;3.23;2.90;;;23.30;99.90;;;;;;5034659;28;20418;-76
2022/08/26 12:35:07;;;;;;;3.90;3.33;;;23.30;99.90;;;;;;5033794;28;20956;-77
2022/08/26 12:37:36;;;;;;;5.87;3.40;;;23.10;99.90;;;;;;5033893;28;20542;-77
2022/08/26 12:40:35;;;;;;;6.20;4.40;;;23.10;99.90;;;;;;5034467;28;20942;-77
2022/08/26 12:43:06;;;;;;;6.93;3.50;;;23.10;99.90;;;;;;5034213;28;20405;-77
2022/08/26 12:45:41;;;;;;;3.40;3.10;;;23.00;99.90;;;;;;5015929;28;20419;-75
2022/08/26 12:48:42;;;;;;;10.53;4.07;;;22.80;99.90;;;;;;5033423;28;20448;-76
2022/08/26 12:51:25;;;;;;;3.60;3.17;;;22.60;99.90;;;;;;4991185;28;20436;-77
2022/08/26 12:53:51;;;;;;;6.20;3.50;;;22.30;99.90;;;;;;5034175;28;20452;-75
2022/08/26 12:56:45;;;;;;;3.97;2.97;;;22.20;99.90;;;;;;5034093;28;20407;-75
2022/08/26 12:59:23;;;;;;;7.80;3.40;;;22.00;99.90;;;;;;5029852;28;20457;-76
2022/08/26 13:01:50;;;;;;;4.03;3.50;;;21.90;99.90;;;;;;5033758;28;20479;-78